createdAt,value
2019-05-15T00:00:55.700Z,304.83
2019-05-15T00:01:55.703Z,304.54
2019-05-15T00:02:55.739Z,303.98
2019-05-15T00:03:58.313Z,304.41
2019-05-15T00:04:55.680Z,304.43
2019-05-15T00:05:55.640Z,304.11
2019-05-15T00:06:58.115Z,304.09
2019-05-15T00:07:55.633Z,304.56
2019-05-15T00:08:55.866Z,304.64
2019-05-15T00:09:55.685Z,304.49
2019-05-15T00:10:55.578Z,303.94
2019-05-15T00:11:55.573Z,304.44
2019-05-15T00:12:57.958Z,304.32
2019-05-15T00:13:55.581Z,304.46
2019-05-15T00:15:04.516Z,304.53
2019-05-15T00:15:55.527Z,305.16
2019-05-15T00:16:55.527Z,303.91
2019-05-15T00:17:57.793Z,303.88
2019-05-15T00:18:55.506Z,304.37
2019-05-15T00:19:55.481Z,304.17
2019-05-15T00:20:55.811Z,303.68
2019-05-15T00:21:55.480Z,304.26
2019-05-15T00:22:55.491Z,304.83
2019-05-15T00:23:55.460Z,305.13
2019-05-15T00:24:55.446Z,304.68
2019-05-15T00:25:55.449Z,304.83
2019-05-15T00:26:55.480Z,304.36
2019-05-15T00:27:55.416Z,304.75
2019-05-15T00:29:07.631Z,305.33
2019-05-15T00:29:57.918Z,304.65
2019-05-15T00:30:55.392Z,304.88
2019-05-15T00:31:55.386Z,304.25
2019-05-15T00:32:55.362Z,304.62
2019-05-15T00:33:55.369Z,304.62
2019-05-15T00:34:55.348Z,305.15
2019-05-15T00:35:55.332Z,304.25
2019-05-15T00:36:55.339Z,305.07
2019-05-15T00:37:55.331Z,304.83
2019-05-15T00:38:55.295Z,304.59
2019-05-15T00:39:55.342Z,305.53
2019-05-15T00:40:55.297Z,306.21
2019-05-15T00:41:55.375Z,304.32
2019-05-15T00:42:55.329Z,304.93
2019-05-15T00:43:55.288Z,304.64
2019-05-15T00:44:55.260Z,305.33
2019-05-15T00:45:55.244Z,304.91
2019-05-15T00:46:55.261Z,304.81
2019-05-15T00:47:55.266Z,305.08
2019-05-15T00:48:55.249Z,305.17
2019-05-15T00:49:55.212Z,305.45
2019-05-15T00:50:55.214Z,304.78
2019-05-15T00:51:55.177Z,305.18
2019-05-15T00:52:55.184Z,304.67
2019-05-15T00:53:55.182Z,305.05
2019-05-15T00:54:55.152Z,306.17
2019-05-15T00:55:55.138Z,306.23
2019-05-15T00:56:55.146Z,305.29
2019-05-15T00:57:55.109Z,306.08
2019-05-15T00:58:55.149Z,304.52
2019-05-15T00:59:55.133Z,305.07
2019-05-15T01:00:55.113Z,305.30
2019-05-15T01:01:55.060Z,305.00
2019-05-15T01:02:55.061Z,304.54
2019-05-15T01:03:55.074Z,305.15
2019-05-15T01:04:55.056Z,304.83
2019-05-15T01:05:55.038Z,304.87
2019-05-15T01:06:55.006Z,304.20
2019-05-15T01:07:55.037Z,304.60
2019-05-15T01:08:55.018Z,305.35
2019-05-15T01:09:54.983Z,305.67
2019-05-15T01:10:55.010Z,304.52
2019-05-15T01:11:54.987Z,304.49
2019-05-15T01:12:55.003Z,305.05
2019-05-15T01:13:54.969Z,305.94
2019-05-15T01:14:54.937Z,304.64
2019-05-15T01:15:54.902Z,305.10
2019-05-15T01:16:54.915Z,304.66
2019-05-15T01:17:54.919Z,304.47
2019-05-15T01:18:54.890Z,305.78
2019-05-15T01:19:54.913Z,305.03
2019-05-15T01:20:54.872Z,305.01
2019-05-15T01:21:54.856Z,306.04
2019-05-15T01:22:54.856Z,306.12
2019-05-15T01:23:54.832Z,305.73
2019-05-15T01:24:54.849Z,306.11
2019-05-15T01:25:54.823Z,306.38
2019-05-15T01:26:54.800Z,306.50
2019-05-15T01:27:54.788Z,305.74
2019-05-15T01:28:54.797Z,305.93
2019-05-15T01:29:54.798Z,305.67
2019-05-15T01:30:54.808Z,305.71
2019-05-15T01:31:54.888Z,305.15
2019-05-15T01:32:54.751Z,304.67
2019-05-15T01:33:54.753Z,304.92
2019-05-15T01:34:54.720Z,305.63
2019-05-15T01:35:54.725Z,305.97
2019-05-15T01:36:54.765Z,305.60
2019-05-15T01:37:54.715Z,306.03
2019-05-15T01:38:54.703Z,304.88
2019-05-15T01:39:54.655Z,305.47
2019-05-15T01:40:54.648Z,305.79
2019-05-15T01:41:54.652Z,305.70
2019-05-15T01:42:54.620Z,305.28
2019-05-15T01:43:54.622Z,305.34
2019-05-15T01:44:54.611Z,305.32
2019-05-15T01:45:54.620Z,305.59
2019-05-15T01:46:54.599Z,306.22
2019-05-15T01:47:54.593Z,305.34
2019-05-15T01:48:54.566Z,306.12
2019-05-15T01:49:54.552Z,305.00
2019-05-15T01:50:54.564Z,306.04
2019-05-15T01:51:54.540Z,306.60
2019-05-15T01:52:54.519Z,305.65
2019-05-15T01:53:54.522Z,305.91
2019-05-15T01:54:54.495Z,306.71
2019-05-15T01:55:54.486Z,305.94
2019-05-15T01:56:54.495Z,306.03
2019-05-15T01:57:54.480Z,305.75
2019-05-15T01:58:54.455Z,306.64
2019-05-15T01:59:57.647Z,305.58
2019-05-15T02:00:55.454Z,306.07
2019-05-15T02:01:54.505Z,306.50
2019-05-15T02:02:54.416Z,305.71
2019-05-15T02:03:54.415Z,306.62
2019-05-15T02:04:54.409Z,306.20
2019-05-15T02:05:54.395Z,305.89
2019-05-15T02:06:54.374Z,305.21
2019-05-15T02:07:54.371Z,306.05
2019-05-15T02:08:54.361Z,305.34
2019-05-15T02:09:54.355Z,305.30
2019-05-15T02:10:54.334Z,305.83
2019-05-15T02:11:54.344Z,304.94
2019-05-15T02:12:54.332Z,305.39
2019-05-15T02:13:54.313Z,305.30
2019-05-15T02:14:54.308Z,305.47
2019-05-15T02:15:54.298Z,305.34
2019-05-15T02:16:54.259Z,304.93
2019-05-15T02:17:54.316Z,305.50
2019-05-15T02:18:54.265Z,305.49
2019-05-15T02:19:54.262Z,304.88
2019-05-15T02:20:54.295Z,305.13
2019-05-15T02:21:54.249Z,305.05
2019-05-15T02:22:54.228Z,305.38
2019-05-15T02:23:54.290Z,305.38
2019-05-15T02:24:54.198Z,305.89
2019-05-15T02:25:54.188Z,305.16
2019-05-15T02:26:54.170Z,306.03
2019-05-15T02:27:54.157Z,305.96
2019-05-15T02:28:54.175Z,305.79
2019-05-15T02:30:11.599Z,305.36
2019-05-15T02:30:55.129Z,305.35
2019-05-15T02:31:54.220Z,304.91
2019-05-15T02:32:54.114Z,304.37
2019-05-15T02:33:54.117Z,304.95
2019-05-15T02:34:54.107Z,305.43
2019-05-15T02:35:54.059Z,305.44
2019-05-15T02:36:54.065Z,305.15
2019-05-15T02:37:54.073Z,305.09
2019-05-15T02:38:54.049Z,305.28
2019-05-15T02:39:54.137Z,305.58
2019-05-15T02:40:54.037Z,304.58
2019-05-15T02:41:54.053Z,305.01
2019-05-15T02:42:54.013Z,304.89
2019-05-15T02:43:54.037Z,305.06
2019-05-15T02:44:53.999Z,304.87
2019-05-15T02:45:54.035Z,305.52
2019-05-15T02:46:53.967Z,304.70
2019-05-15T02:47:53.994Z,305.00
2019-05-15T02:48:53.962Z,305.55
2019-05-15T02:49:53.928Z,306.02
2019-05-15T02:50:53.963Z,306.07
2019-05-15T02:51:53.955Z,307.11
2019-05-15T02:52:53.918Z,304.96
2019-05-15T02:53:53.902Z,305.28
2019-05-15T02:54:53.875Z,305.52
2019-05-15T02:55:53.961Z,305.15
2019-05-15T02:56:53.885Z,305.32
2019-05-15T02:57:53.877Z,306.68
2019-05-15T02:58:53.861Z,306.10
2019-05-15T02:59:53.829Z,305.56
2019-05-15T03:00:53.867Z,305.92
2019-05-15T03:01:53.857Z,305.81
2019-05-15T03:02:53.812Z,306.22
2019-05-15T03:03:53.857Z,305.56
2019-05-15T03:04:53.810Z,305.74
2019-05-15T03:05:53.817Z,305.55
2019-05-15T03:06:53.785Z,306.16
2019-05-15T03:07:53.768Z,305.78
2019-05-15T03:08:53.746Z,305.22
2019-05-15T03:09:53.757Z,306.48
2019-05-15T03:10:53.741Z,305.48
2019-05-15T03:11:53.851Z,306.41
2019-05-15T03:12:53.717Z,306.44
2019-05-15T03:13:53.696Z,307.38
2019-05-15T03:14:53.699Z,306.09
2019-05-15T03:15:53.662Z,306.44
2019-05-15T03:16:53.717Z,306.12
2019-05-15T03:17:53.648Z,306.17
2019-05-15T03:18:55.962Z,306.19
2019-05-15T03:19:54.636Z,306.21
2019-05-15T03:20:53.623Z,305.94
2019-05-15T03:21:53.623Z,305.62
2019-05-15T03:22:53.619Z,306.07
2019-05-15T03:23:53.570Z,307.03
2019-05-15T03:24:53.609Z,306.65
2019-05-15T03:25:53.585Z,305.47
2019-05-15T03:26:53.567Z,306.09
2019-05-15T03:27:53.577Z,306.06
2019-05-15T03:28:53.530Z,306.05
2019-05-15T03:29:53.556Z,306.00
2019-05-15T03:32:09.335Z,304.81
2019-05-15T03:33:02.045Z,306.26
2019-05-15T03:33:55.149Z,305.79
2019-05-15T03:34:56.429Z,306.34
2019-05-15T03:35:55.279Z,306.62
2019-05-15T03:36:53.627Z,306.43
2019-05-15T03:37:53.437Z,306.23
2019-05-15T03:38:53.423Z,307.08
2019-05-15T03:39:53.419Z,306.43
2019-05-15T03:40:53.396Z,306.84
2019-05-15T03:41:53.396Z,307.08
2019-05-15T03:42:53.369Z,306.88
2019-05-15T03:43:53.432Z,305.89
2019-05-15T03:44:53.387Z,306.91
2019-05-15T03:45:53.391Z,305.95
2019-05-15T03:46:53.326Z,306.66
2019-05-15T03:47:53.320Z,306.57
2019-05-15T03:48:53.339Z,306.79
2019-05-15T03:49:53.318Z,307.56
2019-05-15T03:50:53.302Z,307.29
2019-05-15T03:51:53.313Z,307.12
2019-05-15T03:52:53.278Z,306.27
2019-05-15T03:53:53.308Z,306.48
2019-05-15T03:54:53.282Z,306.86
2019-05-15T03:55:53.255Z,306.41
2019-05-15T03:56:53.238Z,306.11
2019-05-15T03:57:53.251Z,307.42
2019-05-15T03:58:53.209Z,306.52
2019-05-15T03:59:53.357Z,306.65
2019-05-15T04:00:53.250Z,307.66
2019-05-15T04:01:53.202Z,307.70
2019-05-15T04:02:53.196Z,306.58
2019-05-15T04:03:53.207Z,306.31
2019-05-15T04:04:56.943Z,306.97
2019-05-15T04:05:54.154Z,306.24
2019-05-15T04:06:53.171Z,306.76
2019-05-15T04:07:53.121Z,307.58
2019-05-15T04:09:02.556Z,306.88
2019-05-15T04:10:02.571Z,307.38
2019-05-15T04:12:10.527Z,305.13
2019-05-15T04:13:20.054Z,307.76
2019-05-15T04:14:20.944Z,307.64
2019-05-15T04:15:19.967Z,307.88
2019-05-15T04:16:19.517Z,307.43
2019-05-15T04:17:10.493Z,306.84
2019-05-15T04:18:10.433Z,307.32
2019-05-15T04:19:10.421Z,307.23
2019-05-15T04:20:10.686Z,309.21
2019-05-15T04:21:10.417Z,307.45
2019-05-15T04:22:10.411Z,307.12
2019-05-15T04:23:10.816Z,306.97
2019-05-15T04:24:10.384Z,308.47
2019-05-15T04:25:10.563Z,307.89
2019-05-15T04:26:10.359Z,307.64
2019-05-15T04:27:10.915Z,306.83
2019-05-15T04:28:10.464Z,307.42
2019-05-15T04:29:10.352Z,307.12
2019-05-15T04:30:13.741Z,306.79
2019-05-15T04:31:10.371Z,307.66
2019-05-15T04:32:10.946Z,306.88
2019-05-15T04:33:10.328Z,308.46
2019-05-15T04:34:10.322Z,307.54
2019-05-15T04:35:10.342Z,308.71
2019-05-15T04:36:10.282Z,308.69
2019-05-15T04:37:10.274Z,308.72
2019-05-15T04:38:10.317Z,308.67
2019-05-15T04:39:10.267Z,308.39
2019-05-15T04:40:10.274Z,308.42
2019-05-15T04:41:10.312Z,307.71
2019-05-15T04:42:10.232Z,308.04
2019-05-15T04:43:10.944Z,308.20
2019-05-15T04:44:10.547Z,308.24
2019-05-15T04:45:10.743Z,307.42
2019-05-15T04:46:10.365Z,308.15
2019-05-15T04:47:10.219Z,307.50
2019-05-15T04:48:10.647Z,307.70
2019-05-15T04:49:10.146Z,306.93
2019-05-15T04:50:10.166Z,307.58
2019-05-15T04:51:10.161Z,306.49
2019-05-15T04:52:10.661Z,306.19
2019-05-15T04:53:11.058Z,306.35
2019-05-15T04:54:10.104Z,307.03
2019-05-15T04:55:10.736Z,306.15
2019-05-15T04:56:10.358Z,307.20
2019-05-15T04:57:10.111Z,306.87
2019-05-15T04:58:10.601Z,307.33
2019-05-15T04:59:10.949Z,306.66
2019-05-15T05:00:11.445Z,306.05
2019-05-15T05:01:13.562Z,306.56
2019-05-15T05:02:16.857Z,306.81
2019-05-15T05:03:15.011Z,306.25
2019-05-15T05:04:09.995Z,306.66
2019-05-15T05:05:10.594Z,306.59
2019-05-15T05:06:10.216Z,307.88
2019-05-15T05:07:09.939Z,308.08
2019-05-15T05:08:14.014Z,306.97
2019-05-15T05:09:13.741Z,307.43
2019-05-15T05:10:10.302Z,307.73
2019-05-15T05:11:11.044Z,308.08
2019-05-15T05:12:11.196Z,306.90
2019-05-15T05:13:09.932Z,308.36
2019-05-15T05:14:09.946Z,307.72
2019-05-15T05:15:09.882Z,307.94
2019-05-15T05:16:09.933Z,306.48
2019-05-15T05:17:09.858Z,307.12
2019-05-15T05:18:09.856Z,308.42
2019-05-15T05:19:09.855Z,307.59
2019-05-15T05:20:09.837Z,307.14
2019-05-15T05:21:09.946Z,307.85
2019-05-15T05:22:09.800Z,306.41
2019-05-15T05:23:09.803Z,307.36
2019-05-15T05:24:09.973Z,306.81
2019-05-15T05:25:09.851Z,306.81
2019-05-15T05:26:11.243Z,306.78
2019-05-15T05:27:14.860Z,307.11
2019-05-15T05:28:10.904Z,306.56
2019-05-15T05:29:09.981Z,306.68
2019-05-15T05:30:10.049Z,307.12
2019-05-15T05:31:10.171Z,307.38
2019-05-15T05:32:10.005Z,307.65
2019-05-15T05:33:10.458Z,307.17
2019-05-15T05:34:09.914Z,308.24
2019-05-15T05:35:10.606Z,307.96
2019-05-15T05:36:12.067Z,307.95
2019-05-15T05:37:09.746Z,308.74
2019-05-15T05:38:09.693Z,306.56
2019-05-15T05:39:13.297Z,307.03
2019-05-15T05:40:19.046Z,306.95
2019-05-15T05:41:11.517Z,306.67
2019-05-15T05:42:09.808Z,307.15
2019-05-15T05:43:09.763Z,307.37
2019-05-15T05:44:09.921Z,307.73
2019-05-15T05:45:10.452Z,308.28
2019-05-15T05:46:09.579Z,307.59
2019-05-15T05:47:09.649Z,306.53
2019-05-15T05:48:09.539Z,307.05
2019-05-15T05:49:09.528Z,308.12
2019-05-15T05:50:09.486Z,306.56
2019-05-15T05:51:19.205Z,307.42
2019-05-15T05:52:09.482Z,307.31
2019-05-15T05:53:09.460Z,307.06
2019-05-15T05:54:09.461Z,306.93
2019-05-15T05:55:09.434Z,307.16
2019-05-15T05:56:09.477Z,306.54
2019-05-15T05:57:09.440Z,306.60
2019-05-15T05:58:09.407Z,307.51
2019-05-15T05:59:09.617Z,306.74
2019-05-15T06:00:09.685Z,308.28
2019-05-15T06:01:09.647Z,307.62
2019-05-15T06:02:09.407Z,306.91
2019-05-15T06:03:09.494Z,307.15
2019-05-15T06:04:09.985Z,306.39
2019-05-15T06:05:09.370Z,306.15
2019-05-15T06:06:09.990Z,307.01
2019-05-15T06:07:14.076Z,305.78
2019-05-15T06:08:10.318Z,306.84
2019-05-15T06:09:09.446Z,306.44
2019-05-15T06:10:09.319Z,305.83
2019-05-15T06:11:09.880Z,305.86
2019-05-15T06:12:09.245Z,306.07
2019-05-15T06:13:09.297Z,306.01
2019-05-15T06:14:09.260Z,306.39
2019-05-15T06:15:09.315Z,306.08
2019-05-15T06:16:09.257Z,306.23
2019-05-15T06:17:09.281Z,306.56
2019-05-15T06:18:09.209Z,306.82
2019-05-15T06:19:09.201Z,305.83
2019-05-15T06:20:09.249Z,305.84
2019-05-15T06:21:09.448Z,306.34
2019-05-15T06:22:09.181Z,306.41
2019-05-15T06:23:09.187Z,306.66
2019-05-15T06:24:13.109Z,306.92
2019-05-15T06:25:11.350Z,306.30
2019-05-15T06:26:10.081Z,305.44
2019-05-15T06:27:09.092Z,305.93
2019-05-15T06:28:09.252Z,305.45
2019-05-15T06:29:09.091Z,305.90
2019-05-15T06:30:14.687Z,306.38
2019-05-15T06:31:10.081Z,307.30
2019-05-15T06:32:09.040Z,306.25
2019-05-15T06:33:13.271Z,306.49
2019-05-15T06:34:09.018Z,304.82
2019-05-15T06:35:09.058Z,305.73
2019-05-15T06:36:09.280Z,305.43
2019-05-15T06:37:09.023Z,305.69
2019-05-15T06:38:08.985Z,305.29
2019-05-15T06:39:09.005Z,305.84
2019-05-15T06:40:08.994Z,305.44
2019-05-15T06:41:09.097Z,306.87
2019-05-15T06:42:09.537Z,305.23
2019-05-15T06:43:09.100Z,305.89
2019-05-15T06:44:08.957Z,306.46
2019-05-15T06:45:18.904Z,305.68
2019-05-15T06:46:09.345Z,304.96
2019-05-15T06:47:08.858Z,305.06
2019-05-15T06:48:09.493Z,305.59
2019-05-15T06:49:08.893Z,305.24
2019-05-15T06:50:08.842Z,304.67
2019-05-15T06:51:18.363Z,304.81
2019-05-15T06:52:08.981Z,305.54
2019-05-15T06:53:10.826Z,305.63
2019-05-15T06:54:08.898Z,305.68
2019-05-15T06:55:09.329Z,304.59
2019-05-15T06:56:09.560Z,304.85
2019-05-15T06:57:09.189Z,305.03
2019-05-15T06:58:09.404Z,306.25
2019-05-15T06:59:09.000Z,304.90
2019-05-15T07:00:08.767Z,305.67
2019-05-15T07:01:09.061Z,305.03
2019-05-15T07:02:09.712Z,305.81
2019-05-15T07:03:20.214Z,305.46
2019-05-15T07:04:09.776Z,304.50
2019-05-15T07:05:08.721Z,305.00
2019-05-15T07:06:09.453Z,304.96
2019-05-15T07:07:11.100Z,304.71
2019-05-15T07:08:09.135Z,305.40
2019-05-15T07:09:09.506Z,305.19
2019-05-15T07:10:09.209Z,305.66
2019-05-15T07:11:09.011Z,305.53
2019-05-15T07:12:08.613Z,304.83
2019-05-15T07:13:18.923Z,305.24
2019-05-15T07:14:08.993Z,304.84
2019-05-15T07:16:28.410Z,302.44
2019-05-15T07:17:28.781Z,304.26
2019-05-15T07:18:28.360Z,303.95
2019-05-15T07:19:28.417Z,304.48
2019-05-15T07:20:28.487Z,303.72
2019-05-15T07:22:19.161Z,301.74
2019-05-15T07:23:19.288Z,303.85
2019-05-15T07:24:19.130Z,302.91
2019-05-15T07:25:19.115Z,304.12
2019-05-15T07:26:19.123Z,303.90
2019-05-15T07:27:19.122Z,303.06
2019-05-15T07:28:19.135Z,302.57
2019-05-15T07:29:19.138Z,303.05
2019-05-15T07:30:19.064Z,302.53
2019-05-15T07:31:19.024Z,302.67
2019-05-15T07:32:19.315Z,301.97
2019-05-15T07:33:34.310Z,301.20
2019-05-15T07:34:19.993Z,302.86
2019-05-15T07:35:19.246Z,303.14
2019-05-15T07:36:19.407Z,302.88
2019-05-15T07:37:19.188Z,302.63
2019-05-15T07:38:18.969Z,301.30
2019-05-15T07:39:19.071Z,302.90
2019-05-15T07:40:19.491Z,301.67
2019-05-15T07:41:18.968Z,302.24
2019-05-15T07:42:19.015Z,302.03
2019-05-15T07:43:18.931Z,302.09
2019-05-15T07:44:19.082Z,302.11
2019-05-15T07:45:19.761Z,302.81
2019-05-15T07:46:18.950Z,302.23
2019-05-15T07:47:19.268Z,301.22
2019-05-15T07:48:19.154Z,302.84
2019-05-15T07:49:18.871Z,301.92
2019-05-15T07:50:19.748Z,302.44
2019-05-15T07:51:18.827Z,301.05
2019-05-15T07:52:19.407Z,302.00
2019-05-15T07:53:19.773Z,301.72
2019-05-15T07:54:18.846Z,301.86
2019-05-15T07:55:18.792Z,301.91
2019-05-15T07:56:18.806Z,302.38
2019-05-15T07:57:19.475Z,302.20
2019-05-15T07:58:21.559Z,301.50
2019-05-15T07:59:18.904Z,301.46
2019-05-15T08:00:19.188Z,301.86
2019-05-15T08:01:18.777Z,301.11
2019-05-15T08:02:19.184Z,301.98
2019-05-15T08:03:18.781Z,300.33
2019-05-15T08:04:26.101Z,300.54
2019-05-15T08:05:19.731Z,302.07
2019-05-15T08:06:18.675Z,300.28
2019-05-15T08:07:18.686Z,299.29
2019-05-15T08:08:18.817Z,301.32
2019-05-15T08:09:18.707Z,300.22
2019-05-15T08:10:18.647Z,300.98
2019-05-15T08:11:23.855Z,302.24
2019-05-15T08:12:19.734Z,300.95
2019-05-15T08:13:18.868Z,302.02
2019-05-15T08:14:18.747Z,302.49
2019-05-15T08:15:18.582Z,301.16
2019-05-15T08:16:18.587Z,299.12
2019-05-15T08:17:21.682Z,300.33
2019-05-15T08:18:18.636Z,300.84
2019-05-15T08:19:18.545Z,301.09
2019-05-15T08:20:18.544Z,301.22
2019-05-15T08:21:18.759Z,300.57
2019-05-15T08:22:18.497Z,299.59
2019-05-15T08:23:19.469Z,302.70
2019-05-15T08:24:19.080Z,300.39
2019-05-15T08:25:30.464Z,302.15
2019-05-15T08:26:19.494Z,299.67
2019-05-15T08:27:19.078Z,300.26
2019-05-15T08:28:19.155Z,299.38
2019-05-15T08:29:21.581Z,300.88
2019-05-15T08:30:18.563Z,301.25
2019-05-15T08:31:18.614Z,302.52
2019-05-15T08:32:19.027Z,301.42
2019-05-15T08:33:18.510Z,301.45
2019-05-15T08:34:19.568Z,300.11
2019-05-15T08:35:19.185Z,300.35
2019-05-15T08:36:18.505Z,302.36
2019-05-15T08:37:18.431Z,300.45
2019-05-15T08:38:18.593Z,302.17
2019-05-15T08:39:19.016Z,300.98
2019-05-15T08:40:18.419Z,301.20
2019-05-15T08:41:18.659Z,300.84
2019-05-15T08:42:18.845Z,299.67
2019-05-15T08:43:18.631Z,302.15
2019-05-15T08:44:18.745Z,302.27
2019-05-15T08:45:18.887Z,301.62
2019-05-15T08:46:18.792Z,302.84
2019-05-15T08:47:18.994Z,300.35
2019-05-15T08:48:18.709Z,301.40
2019-05-15T08:49:20.180Z,301.65
2019-05-15T08:50:18.394Z,302.10
2019-05-15T08:51:19.336Z,299.58
2019-05-15T08:52:18.949Z,301.03
2019-05-15T08:53:19.264Z,302.53
2019-05-15T08:54:18.490Z,300.19
2019-05-15T08:55:20.212Z,301.32
2019-05-15T08:56:19.523Z,302.29
2019-05-15T08:57:20.417Z,300.77
2019-05-15T08:58:20.450Z,301.45
2019-05-15T08:59:18.801Z,300.40
2019-05-15T09:00:18.512Z,300.18
2019-05-15T09:01:18.231Z,302.43
2019-05-15T09:02:18.633Z,302.31
2019-05-15T09:03:18.436Z,302.53
2019-05-15T09:04:29.769Z,301.98
2019-05-15T09:05:19.061Z,302.44
2019-05-15T09:06:22.298Z,302.37
2019-05-15T09:07:18.174Z,302.74
2019-05-15T09:08:19.193Z,302.94
2019-05-15T09:09:18.353Z,304.03
2019-05-15T09:10:18.524Z,301.06
2019-05-15T09:11:19.168Z,301.46
2019-05-15T09:12:18.858Z,301.55
2019-05-15T09:13:18.818Z,301.76
2019-05-15T09:14:18.552Z,301.15
2019-05-15T09:15:18.878Z,302.32
2019-05-15T09:16:18.484Z,302.72
2019-05-15T09:17:18.219Z,302.29
2019-05-15T09:18:20.327Z,301.70
2019-05-15T09:19:18.462Z,299.82
2019-05-15T09:20:19.520Z,299.98
2019-05-15T09:21:19.191Z,301.51
2019-05-15T09:22:18.738Z,299.85
2019-05-15T09:23:19.223Z,301.98
2019-05-15T09:24:19.886Z,300.88
2019-05-15T09:25:19.414Z,301.13
2019-05-15T09:26:19.494Z,299.30
2019-05-15T09:27:18.437Z,301.88
2019-05-15T09:28:18.994Z,299.69
2019-05-15T09:29:18.394Z,301.58
2019-05-15T09:30:18.319Z,300.83
2019-05-15T09:31:19.216Z,301.17
2019-05-15T09:32:28.984Z,301.48
2019-05-15T09:33:28.437Z,301.89
2019-05-15T09:34:44.991Z,300.95
2019-05-15T09:35:28.078Z,298.70
2019-05-15T09:36:30.129Z,298.42
2019-05-15T09:37:18.112Z,299.66
2019-05-15T09:38:18.415Z,300.87
2019-05-15T09:39:18.266Z,301.56
2019-05-15T09:40:18.585Z,301.65
2019-05-15T09:41:17.969Z,301.05
2019-05-15T09:42:18.020Z,301.29
2019-05-15T09:43:18.139Z,301.30
2019-05-15T09:44:21.501Z,300.84
2019-05-15T09:45:18.006Z,300.69
2019-05-15T09:46:33.758Z,300.23
2019-05-15T09:47:18.834Z,302.02
2019-05-15T09:48:19.665Z,301.35
2019-05-15T09:49:19.149Z,300.44
2019-05-15T09:50:19.318Z,300.53
2019-05-15T09:51:18.284Z,300.41
2019-05-15T09:52:22.531Z,302.11
2019-05-15T09:53:19.110Z,301.33
2019-05-15T09:54:19.283Z,302.14
2019-05-15T09:55:18.055Z,301.36
2019-05-15T09:56:18.651Z,303.03
2019-05-15T09:57:18.824Z,302.18
2019-05-15T09:58:20.161Z,302.50
2019-05-15T09:59:18.588Z,302.67
2019-05-15T10:00:18.977Z,301.17
2019-05-15T10:01:19.567Z,301.49
2019-05-15T10:02:18.918Z,302.58
2019-05-15T10:03:18.977Z,302.82
2019-05-15T10:04:18.994Z,302.33
2019-05-15T10:05:18.672Z,302.79
2019-05-15T10:06:20.525Z,302.28
2019-05-15T10:07:19.298Z,301.36
2019-05-15T10:08:20.870Z,301.81
2019-05-15T10:09:18.882Z,302.19
2019-05-15T10:11:34.348Z,298.40
2019-05-15T10:12:35.285Z,301.91
2019-05-15T10:13:42.714Z,301.33
2019-05-15T10:14:44.669Z,300.04
2019-05-15T10:15:42.717Z,300.74
2019-05-15T10:16:44.725Z,302.63
2019-05-15T10:17:34.277Z,302.06
2019-05-15T10:18:34.278Z,301.72
2019-05-15T10:19:34.251Z,302.11
2019-05-15T10:21:52.919Z,299.96
2019-05-15T10:23:00.204Z,302.80
2019-05-15T10:23:50.794Z,302.24
2019-05-15T10:24:51.106Z,301.69
2019-05-15T10:25:50.775Z,301.77
2019-05-15T10:26:50.751Z,301.98
2019-05-15T10:27:50.742Z,300.94
2019-05-15T10:28:50.797Z,299.92
2019-05-15T10:29:50.731Z,298.02
2019-05-15T10:30:50.736Z,300.77
2019-05-15T10:31:50.707Z,301.90
2019-05-15T10:32:50.698Z,302.73
2019-05-15T10:33:50.674Z,302.20
2019-05-15T10:34:50.778Z,300.01
2019-05-15T10:35:51.233Z,300.81
2019-05-15T10:36:50.655Z,302.07
2019-05-15T10:37:50.698Z,302.54
2019-05-15T10:38:50.698Z,302.97
2019-05-15T10:39:52.763Z,300.77
2019-05-15T10:41:03.041Z,301.61
2019-05-15T10:41:51.665Z,301.26
2019-05-15T10:42:50.601Z,299.45
2019-05-15T10:43:56.427Z,298.91
2019-05-15T10:44:52.102Z,302.39
2019-05-15T10:45:52.637Z,301.49
2019-05-15T10:46:50.527Z,301.81
2019-05-15T10:47:50.613Z,300.36
2019-05-15T10:48:50.516Z,297.81
2019-05-15T10:49:50.557Z,299.47
2019-05-15T10:50:50.482Z,299.51
2019-05-15T10:51:50.516Z,300.48
2019-05-15T10:52:50.483Z,298.91
2019-05-15T10:53:50.485Z,297.52
2019-05-15T10:54:50.432Z,301.09
2019-05-15T10:55:50.593Z,301.60
2019-05-15T10:56:50.511Z,300.75
2019-05-15T10:57:50.434Z,299.81
2019-05-15T10:58:50.714Z,300.16
2019-05-15T10:59:50.402Z,300.83
2019-05-15T11:00:50.435Z,300.49
2019-05-15T11:01:50.436Z,301.63
2019-05-15T11:02:50.558Z,299.14
2019-05-15T11:03:50.362Z,300.46
2019-05-15T11:04:50.373Z,299.11
2019-05-15T11:05:50.316Z,300.82
2019-05-15T11:06:50.349Z,302.43
2019-05-15T11:07:50.322Z,301.42
2019-05-15T11:08:51.501Z,301.51
2019-05-15T11:09:51.110Z,300.41
2019-05-15T11:10:50.265Z,301.34
2019-05-15T11:11:51.620Z,300.27
2019-05-15T11:12:50.297Z,299.59
2019-05-15T11:13:50.240Z,300.77
2019-05-15T11:14:50.245Z,300.85
2019-05-15T11:15:50.216Z,301.58
2019-05-15T11:16:50.222Z,300.98
2019-05-15T11:17:50.291Z,300.85
2019-05-15T11:18:53.425Z,300.83
2019-05-15T11:19:50.338Z,300.99
2019-05-15T11:20:50.179Z,301.05
2019-05-15T11:21:50.189Z,301.86
2019-05-15T11:22:50.256Z,300.37
2019-05-15T11:23:50.632Z,301.14
2019-05-15T11:24:52.944Z,302.59
2019-05-15T11:25:50.123Z,300.82
2019-05-15T11:26:50.216Z,302.73
2019-05-15T11:27:50.143Z,301.42
2019-05-15T11:28:50.157Z,300.65
2019-05-15T11:29:50.050Z,301.54
2019-05-15T11:30:50.090Z,302.79
2019-05-15T11:31:50.206Z,302.31
2019-05-15T11:32:50.073Z,302.41
2019-05-15T11:33:50.084Z,303.23
2019-05-15T11:34:50.021Z,302.15
2019-05-15T11:36:00.479Z,302.00
2019-05-15T11:36:51.087Z,302.50
2019-05-15T11:37:56.595Z,300.18
2019-05-15T11:38:51.009Z,300.47
2019-05-15T11:39:50.027Z,302.36
2019-05-15T11:40:49.997Z,301.91
2019-05-15T11:41:49.944Z,302.76
2019-05-15T11:42:49.951Z,301.18
2019-05-15T11:43:49.989Z,301.24
2019-05-15T11:44:53.226Z,301.39
2019-05-15T11:45:50.695Z,299.98
2019-05-15T11:46:50.688Z,302.14
2019-05-15T11:47:49.967Z,298.08
2019-05-15T11:48:51.127Z,301.87
2019-05-15T11:49:49.896Z,301.39
2019-05-15T11:50:49.935Z,301.15
2019-05-15T11:51:49.954Z,301.67
2019-05-15T11:52:49.820Z,303.65
2019-05-15T11:53:49.908Z,302.72
2019-05-15T11:54:51.086Z,300.99
2019-05-15T11:55:49.812Z,298.88
2019-05-15T11:56:49.807Z,302.47
2019-05-15T11:57:52.336Z,299.69
2019-05-15T11:58:50.774Z,301.72
2019-05-15T11:59:55.344Z,302.52
2019-05-15T12:00:50.766Z,301.24
2019-05-15T12:01:49.752Z,302.23
2019-05-15T12:02:49.742Z,302.60
2019-05-15T12:03:49.759Z,302.45
2019-05-15T12:04:49.779Z,302.88
2019-05-15T12:05:49.711Z,301.43
2019-05-15T12:06:58.864Z,302.04
2019-05-15T12:07:50.712Z,302.69
2019-05-15T12:08:50.133Z,303.40
2019-05-15T12:09:49.676Z,299.22
2019-05-15T12:10:49.617Z,300.37
2019-05-15T12:11:49.659Z,302.71
2019-05-15T12:12:49.831Z,298.60
2019-05-15T12:13:49.593Z,302.76
2019-05-15T12:14:50.129Z,301.61
2019-05-15T12:15:49.678Z,302.95
2019-05-15T12:17:05.136Z,301.23
2019-05-15T12:17:50.595Z,299.54
2019-05-15T12:18:49.546Z,301.71
2019-05-15T12:19:54.982Z,299.25
2019-05-15T12:20:50.759Z,300.57
2019-05-15T12:21:49.603Z,302.25
2019-05-15T12:22:49.535Z,301.02
2019-05-15T12:23:49.604Z,301.92
2019-05-15T12:24:50.130Z,300.56
2019-05-15T12:25:49.577Z,302.19
2019-05-15T12:26:49.450Z,303.16
2019-05-15T12:27:49.502Z,298.85
2019-05-15T12:28:49.521Z,300.89
2019-05-15T12:29:49.483Z,299.40
2019-05-15T12:30:50.149Z,302.28
2019-05-15T12:31:49.718Z,300.70
2019-05-15T12:32:50.249Z,300.72
2019-05-15T12:33:49.402Z,300.53
2019-05-15T12:34:49.705Z,300.87
2019-05-15T12:35:50.735Z,301.33